Time;durP1;ratioP1;P1;durP2;ratioP2;P2;SDS_P1;SDS_P2;PMS_P1;PMS_P2;Temp;Humidity;BMP_temperature;BMP_pressure;BME280_temperature;BME280_humidity;BME280_pressure;Samples;Min_cycle;Max_cycle;Signal;HPM_P1;HPM_P2
2023/08/02 00:02:16;;;;;;;4.63;1.77;;;15.00;99.90;;;;;;5053691;28;20025;-76
2023/08/02 00:04:41;;;;;;;5.45;1.60;;;15.00;99.90;;;;;;5053135;28;20025;-75
2023/08/02 00:07:07;;;;;;;6.55;1.92;;;15.00;99.90;;;;;;5052772;28;20029;-76
2023/08/02 00:09:33;;;;;;;6.78;2.00;;;15.10;99.90;;;;;;5055203;28;20082;-76
2023/08/02 00:11:59;;;;;;;4.38;1.85;;;15.10;99.90;;;;;;5056392;28;20021;-76
2023/08/02 00:14:25;;;;;;;4.13;1.92;;;15.10;99.90;;;;;;5056482;28;20449;-75
2023/08/02 00:16:51;;;;;;;6.43;2.28;;;15.20;99.90;;;;;;5056674;28;20017;-75
2023/08/02 00:19:17;;;;;;;5.60;2.03;;;15.10;99.90;;;;;;5056779;28;20059;-75
2023/08/02 00:21:43;;;;;;;5.35;1.98;;;15.10;99.90;;;;;;5056608;28;20453;-75
2023/08/02 00:24:10;;;;;;;8.88;2.22;;;15.00;99.90;;;;;;5056470;28;20017;-76
2023/08/02 00:26:35;;;;;;;5.65;2.50;;;14.90;99.90;;;;;;5055432;28;20029;-75
2023/08/02 00:29:01;;;;;;;5.63;2.40;;;14.90;99.90;;;;;;5056328;28;20365;-75
2023/08/02 00:31:26;;;;;;;6.57;2.08;;;14.90;99.90;;;;;;5055014;28;20453;-75
2023/08/02 00:33:52;;;;;;;14.15;2.42;;;14.90;99.90;;;;;;5056858;28;20024;-74
2023/08/02 00:36:18;;;;;;;4.88;2.30;;;14.80;99.90;;;;;;5056305;28;20017;-75
2023/08/02 00:38:43;;;;;;;4.90;2.13;;;14.80;99.90;;;;;;5056170;28;20052;-75
2023/08/02 00:41:09;;;;;;;8.35;2.20;;;14.80;99.90;;;;;;5056124;28;20060;-75
2023/08/02 00:43:43;;;;;;;6.28;2.40;;;14.80;99.90;;;;;;5056101;28;20025;-74
2023/08/02 00:46:10;;;;;;;5.35;1.98;;;14.80;99.90;;;;;;5055872;28;20031;-75
2023/08/02 00:48:37;;;;;;;6.25;2.38;;;14.80;99.90;;;;;;5055639;28;20124;-75
2023/08/02 00:51:03;;;;;;;6.65;1.88;;;14.80;99.90;;;;;;5055924;28;20044;-76
2023/08/02 00:53:29;;;;;;;4.47;2.10;;;14.80;99.90;;;;;;5055879;28;20056;-77
2023/08/02 00:55:56;;;;;;;8.02;2.13;;;14.70;99.90;;;;;;5055600;28;20025;-77
2023/08/02 00:58:22;;;;;;;4.25;2.00;;;14.70;99.90;;;;;;5056094;28;20020;-74
2023/08/02 01:00:48;;;;;;;4.47;1.85;;;14.80;99.90;;;;;;5055809;28;20036;-74
2023/08/02 01:03:14;;;;;;;5.07;2.13;;;14.80;99.90;;;;;;5056051;28;20453;-75
2023/08/02 01:05:51;;;;;;;5.30;2.40;;;14.90;99.90;;;;;;5055434;28;20025;-75
2023/08/02 01:08:31;;;;;;;5.88;2.10;;;14.90;99.90;;;;;;5055420;28;20021;-76
2023/08/02 01:11:20;;;;;;;8.05;2.47;;;14.90;99.90;;;;;;5055877;28;20021;-77
2023/08/02 01:13:50;;;;;;;4.78;2.33;;;14.80;99.90;;;;;;5052636;28;20454;-76
2023/08/02 01:16:16;;;;;;;;;;;14.90;99.90;;;;;;5055976;28;20032;-76
2023/08/02 01:18:42;;;;;;;5.47;2.53;;;14.90;99.90;;;;;;5055564;28;19904;-75
2023/08/02 01:21:08;;;;;;;3.60;2.03;;;14.90;99.90;;;;;;5055096;28;20035;-75
2023/08/02 01:23:34;;;;;;;3.63;2.10;;;15.00;99.90;;;;;;5054142;28;20021;-75
2023/08/02 01:26:02;;;;;;;5.35;2.20;;;15.00;99.90;;;;;;5055317;28;20104;-75
2023/08/02 01:28:29;;;;;;;5.70;2.03;;;15.00;99.90;;;;;;5054919;28;20049;-75
2023/08/02 01:30:55;;;;;;;4.22;2.00;;;15.00;99.90;;;;;;5055269;28;20043;-76
2023/08/02 01:33:22;;;;;;;5.97;2.00;;;15.10;99.90;;;;;;5055216;28;20099;-76
2023/08/02 01:35:49;;;;;;;4.53;2.17;;;15.10;99.90;;;;;;5055158;28;20071;-76
2023/08/02 01:38:15;;;;;;;5.57;1.92;;;15.10;99.90;;;;;;5055333;28;20338;-76
2023/08/02 01:40:40;;;;;;;4.63;2.15;;;15.20;99.90;;;;;;5055329;28;20071;-75
2023/08/02 01:43:06;;;;;;;3.58;2.03;;;15.10;99.90;;;;;;5055505;28;20352;-75
2023/08/02 01:45:31;;;;;;;5.32;2.28;;;15.10;99.90;;;;;;5055268;28;20391;-75
2023/08/02 01:47:57;;;;;;;7.78;2.35;;;15.10;99.90;;;;;;5054910;28;20063;-75
2023/08/02 01:50:23;;;;;;;5.57;2.08;;;15.10;99.90;;;;;;5055252;28;20041;-75
2023/08/02 01:52:49;;;;;;;5.32;2.17;;;15.10;99.90;;;;;;5054646;28;20411;-76
2023/08/02 01:55:17;;;;;;;6.70;2.35;;;15.10;99.90;;;;;;5054848;28;20114;-75
2023/08/02 01:57:43;;;;;;;7.88;2.65;;;15.00;99.90;;;;;;5054366;28;20491;-75
2023/08/02 02:00:10;;;;;;;8.45;2.13;;;15.00;99.90;;;;;;5054589;28;20037;-76
2023/08/02 02:02:35;;;;;;;7.93;2.30;;;15.00;99.90;;;;;;5054659;28;20099;-76
2023/08/02 02:05:01;;;;;;;6.75;2.30;;;14.90;99.90;;;;;;5054919;28;20417;-75
2023/08/02 02:07:27;;;;;;;5.05;2.20;;;14.80;99.90;;;;;;5056317;28;20027;-76
2023/08/02 02:09:52;;;;;;;4.05;2.00;;;14.70;99.90;;;;;;5054846;28;20103;-75
2023/08/02 02:12:18;;;;;;;7.60;2.38;;;14.60;99.90;;;;;;5054735;28;20028;-75
2023/08/02 02:14:43;;;;;;;5.03;2.33;;;14.50;99.90;;;;;;5054971;28;20128;-76
2023/08/02 02:17:09;;;;;;;8.23;2.33;;;14.60;99.90;;;;;;5054479;28;20043;-75
2023/08/02 02:19:35;;;;;;;6.57;2.63;;;14.60;99.90;;;;;;5054365;28;20029;-75
2023/08/02 02:22:00;;;;;;;6.05;2.40;;;14.50;99.90;;;;;;5054171;28;20021;-75
2023/08/02 02:24:26;;;;;;;4.30;1.92;;;14.30;99.90;;;;;;5054709;28;20028;-75
2023/08/02 02:26:51;;;;;;;3.55;2.15;;;14.30;99.90;;;;;;5054196;28;20025;-75
2023/08/02 02:29:17;;;;;;;4.00;2.00;;;14.30;99.90;;;;;;5054086;28;20465;-76
2023/08/02 02:31:43;;;;;;;7.63;2.20;;;14.30;99.90;;;;;;5053506;28;20047;-75
2023/08/02 02:34:08;;;;;;;4.30;2.35;;;14.30;99.90;;;;;;5053714;28;20017;-76
2023/08/02 02:36:34;;;;;;;5.75;2.45;;;14.20;99.90;;;;;;5052768;28;20133;-76
2023/08/02 02:38:59;;;;;;;4.65;2.30;;;14.20;99.90;;;;;;5053988;28;20027;-75
2023/08/02 02:41:25;;;;;;;6.88;2.30;;;14.20;99.90;;;;;;5054224;28;20028;-76
2023/08/02 02:43:51;;;;;;;7.85;2.50;;;14.10;99.90;;;;;;5054409;28;20345;-75
2023/08/02 02:46:16;;;;;;;7.88;2.28;;;14.00;99.90;;;;;;5053852;28;20396;-75
2023/08/02 02:48:42;;;;;;;6.90;2.50;;;14.00;99.90;;;;;;5053869;28;20078;-75
2023/08/02 02:51:09;;;;;;;4.35;2.22;;;13.80;99.90;;;;;;5053657;28;20067;-75
2023/08/02 02:53:34;;;;;;;5.93;2.65;;;13.80;99.90;;;;;;5053780;28;20029;-75
2023/08/02 02:56:00;;;;;;;8.57;2.53;;;13.70;99.90;;;;;;5053521;28;20083;-75
2023/08/02 02:58:25;;;;;;;6.03;2.78;;;13.80;99.90;;;;;;5053692;28;20060;-75
2023/08/02 03:00:51;;;;;;;9.88;3.00;;;13.70;99.90;;;;;;5053361;28;20027;-75
2023/08/02 03:03:17;;;;;;;6.68;2.97;;;13.70;99.90;;;;;;5054133;28;20024;-74
2023/08/02 03:05:42;;;;;;;5.53;2.50;;;13.70;99.90;;;;;;5054065;28;20441;-75
2023/08/02 03:08:08;;;;;;;6.78;2.58;;;13.60;99.90;;;;;;5053549;28;20442;-75
2023/08/02 03:10:34;;;;;;;7.63;2.38;;;13.60;99.90;;;;;;5053475;28;20029;-75
2023/08/02 03:12:59;;;;;;;4.75;2.40;;;13.60;99.90;;;;;;5053249;28;20029;-75
2023/08/02 03:15:25;;;;;;;8.20;2.45;;;13.60;99.90;;;;;;5053225;28;20021;-75
2023/08/02 03:17:50;;;;;;;6.22;1.95;;;13.60;99.90;;;;;;5053483;28;20028;-76
2023/08/02 03:20:16;;;;;;;9.68;2.45;;;13.60;99.90;;;;;;5053211;28;20036;-76
2023/08/02 03:22:42;;;;;;;10.25;2.92;;;13.60;99.90;;;;;;5053405;28;20372;-75
2023/08/02 03:25:08;;;;;;;3.83;2.13;;;13.50;99.90;;;;;;5053357;28;20101;-75
2023/08/02 03:27:33;;;;;;;5.72;2.60;;;13.50;99.90;;;;;;5054096;28;20025;-74
2023/08/02 03:29:59;;;;;;;4.50;2.28;;;13.50;99.90;;;;;;5053543;28;20166;-74
2023/08/02 03:32:24;;;;;;;8.02;2.40;;;13.50;99.90;;;;;;5053261;28;20028;-74
2023/08/02 03:34:50;;;;;;;5.43;2.10;;;13.60;99.90;;;;;;5053288;28;20017;-75
2023/08/02 03:37:16;;;;;;;3.50;2.15;;;13.60;99.90;;;;;;5053289;28;20057;-75
2023/08/02 03:39:41;;;;;;;4.32;2.10;;;13.70;99.90;;;;;;5054062;28;20037;-74
2023/08/02 03:42:07;;;;;;;4.55;2.20;;;13.70;99.90;;;;;;5053302;28;20023;-75
2023/08/02 03:44:32;;;;;;;6.70;2.20;;;13.60;99.90;;;;;;5057431;28;20017;-74
2023/08/02 03:46:58;;;;;;;7.45;2.60;;;13.70;99.90;;;;;;5057443;28;20104;-74
2023/08/02 03:49:24;;;;;;;4.93;2.17;;;13.70;99.90;;;;;;5057316;28;20040;-75
2023/08/02 03:51:49;;;;;;;7.80;2.45;;;13.70;99.90;;;;;;5057088;28;20032;-76
2023/08/02 03:54:15;;;;;;;4.75;2.55;;;13.70;99.90;;;;;;5056919;28;20017;-74
2023/08/02 03:56:41;;;;;;;7.70;2.50;;;13.80;99.90;;;;;;5056883;28;20025;-78
2023/08/02 03:59:06;;;;;;;7.15;2.47;;;13.80;99.90;;;;;;5057136;28;20016;-79
2023/08/02 04:01:32;;;;;;;8.40;2.53;;;13.90;99.90;;;;;;5057237;28;20023;-80
2023/08/02 04:03:57;;;;;;;5.80;2.20;;;13.90;99.90;;;;;;5057238;28;20021;-79
2023/08/02 04:06:23;;;;;;;5.75;2.33;;;13.90;99.90;;;;;;5057079;28;20025;-78
2023/08/02 04:08:49;;;;;;;6.25;2.20;;;14.00;99.90;;;;;;5055575;28;20021;-77
2023/08/02 04:11:14;;;;;;;4.10;2.08;;;14.00;99.90;;;;;;5056864;28;20036;-75
2023/08/02 04:13:40;;;;;;;6.60;2.80;;;14.10;99.90;;;;;;5056901;28;20021;-78
2023/08/02 04:16:06;;;;;;;6.15;2.28;;;14.10;99.90;;;;;;5056777;28;20074;-75
2023/08/02 04:18:32;;;;;;;6.85;2.25;;;14.10;99.90;;;;;;5057019;28;20372;-78
2023/08/02 04:20:59;;;;;;;9.52;2.30;;;14.20;99.90;;;;;;5056415;28;20040;-75
2023/08/02 04:23:26;;;;;;;4.85;2.30;;;14.20;99.90;;;;;;5056867;28;20036;-73
2023/08/02 04:25:52;;;;;;;5.75;1.92;;;14.20;99.90;;;;;;5056294;28;20017;-73
2023/08/02 04:28:17;;;;;;;5.75;2.00;;;14.20;99.90;;;;;;5056016;28;20017;-76
2023/08/02 04:30:48;;;;;;;16.40;4.03;;;14.30;99.90;;;;;;5056133;28;20029;-79
2023/08/02 04:33:14;;;;;;;5.03;2.17;;;14.30;99.90;;;;;;5056427;28;20029;-74
2023/08/02 04:35:39;;;;;;;10.90;2.00;;;14.30;99.90;;;;;;5056421;28;20150;-76
2023/08/02 04:38:05;;;;;;;6.57;2.15;;;14.40;99.90;;;;;;5056120;28;20032;-76
2023/08/02 04:40:30;;;;;;;14.88;2.20;;;14.50;99.90;;;;;;5056067;28;20033;-78
2023/08/02 04:42:56;;;;;;;4.55;2.40;;;14.60;99.90;;;;;;5056304;28;20099;-76
2023/08/02 04:45:22;;;;;;;5.63;2.20;;;14.60;99.90;;;;;;5056315;28;20096;-78
2023/08/02 04:47:47;;;;;;;8.38;2.15;;;14.60;99.90;;;;;;5055763;28;20472;-77
2023/08/02 04:50:13;;;;;;;6.57;2.03;;;14.70;99.90;;;;;;5056038;28;20036;-80
2023/08/02 04:52:38;;;;;;;6.50;2.10;;;14.70;99.90;;;;;;5055777;28;20021;-77
2023/08/02 04:55:06;;;;;;;11.70;3.47;;;14.60;99.90;;;;;;5054703;28;20453;-79
2023/08/02 04:57:31;;;;;;;14.00;3.42;;;14.70;99.90;;;;;;5056168;28;20383;-75
2023/08/02 04:59:57;;;;;;;8.93;2.72;;;14.60;99.90;;;;;;5055614;28;20027;-79
2023/08/02 05:02:28;;;;;;;9.73;2.72;;;14.50;99.90;;;;;;5055538;28;20025;-78
2023/08/02 05:04:54;;;;;;;4.55;2.33;;;14.30;99.90;;;;;;5055807;28;20021;-79
2023/08/02 05:07:20;;;;;;;6.18;1.88;;;14.30;99.90;;;;;;5055458;28;20029;-77
2023/08/02 05:09:45;;;;;;;5.10;2.15;;;14.40;99.90;;;;;;5055608;28;20029;-78
2023/08/02 05:12:11;;;;;;;4.28;1.90;;;14.50;99.90;;;;;;5055595;28;20021;-76
2023/08/02 05:14:36;;;;;;;4.78;2.53;;;14.60;99.90;;;;;;5055353;28;20078;-78
2023/08/02 05:17:07;;;;;;;4.78;2.05;;;14.70;99.90;;;;;;5055268;28;20095;-79
2023/08/02 05:19:33;;;;;;;5.70;2.28;;;14.80;99.90;;;;;;5055732;28;20047;-79
2023/08/02 05:21:59;;;;;;;4.43;2.20;;;14.90;99.90;;;;;;5055126;28;20025;-79
2023/08/02 05:24:24;;;;;;;9.27;2.33;;;14.90;99.90;;;;;;5055117;28;20074;-80
2023/08/02 05:26:50;;;;;;;4.47;2.50;;;14.90;99.90;;;;;;5054880;28;20079;-79
2023/08/02 05:29:15;;;;;;;4.85;2.58;;;14.90;99.90;;;;;;5054788;28;20100;-76
2023/08/02 05:31:41;;;;;;;6.50;2.28;;;14.90;99.90;;;;;;5055147;28;20021;-78
2023/08/02 05:34:07;;;;;;;5.28;2.35;;;14.80;99.90;;;;;;5055024;28;20048;-78
2023/08/02 05:36:32;;;;;;;7.28;2.90;;;14.90;99.90;;;;;;5054981;28;20056;-78
2023/08/02 05:38:58;;;;;;;5.60;2.30;;;14.90;99.90;;;;;;5054935;28;20095;-79
2023/08/02 05:41:23;;;;;;;4.82;2.63;;;15.00;99.90;;;;;;5054874;28;20025;-77
2023/08/02 05:43:49;;;;;;;6.68;2.80;;;15.10;99.90;;;;;;5054756;28;20029;-74
2023/08/02 05:46:15;;;;;;;6.93;2.17;;;15.20;99.90;;;;;;5054700;28;20074;-79
2023/08/02 05:48:40;;;;;;;4.50;2.75;;;15.20;99.90;;;;;;5054778;28;20045;-78
2023/08/02 05:51:06;;;;;;;3.83;2.30;;;15.30;99.90;;;;;;5054557;28;20033;-75
2023/08/02 05:53:31;;;;;;;6.70;2.42;;;15.30;99.90;;;;;;5054673;28;20025;-80
2023/08/02 05:55:58;;;;;;;4.38;2.35;;;15.40;99.90;;;;;;5054649;28;20029;-80
2023/08/02 05:58:24;;;;;;;7.57;2.55;;;15.40;99.90;;;;;;5054811;28;20024;-76
2023/08/02 06:00:50;;;;;;;7.18;3.47;;;15.40;99.90;;;;;;5055055;28;20135;-76
2023/08/02 06:03:16;;;;;;;5.72;2.88;;;15.40;99.90;;;;;;5054462;28;20095;-79
2023/08/02 06:05:41;;;;;;;7.43;2.70;;;15.40;99.90;;;;;;5053886;28;20618;-78
2023/08/02 06:08:07;;;;;;;6.13;3.08;;;15.40;99.90;;;;;;5053939;28;20021;-78
2023/08/02 06:10:33;;;;;;;7.10;2.47;;;15.40;99.90;;;;;;5053913;28;20064;-80
2023/08/02 06:12:58;;;;;;;8.38;2.75;;;15.40;99.90;;;;;;5054466;28;20019;-74
2023/08/02 06:15:24;;;;;;;6.57;2.67;;;15.40;99.90;;;;;;5054237;28;20021;-76
2023/08/02 06:17:49;;;;;;;6.03;2.90;;;15.30;99.90;;;;;;5054307;28;20448;-76
2023/08/02 06:20:15;;;;;;;6.63;2.97;;;15.30;99.90;;;;;;5054162;28;20029;-74
2023/08/02 06:22:41;;;;;;;6.53;2.90;;;15.30;99.90;;;;;;5053914;28;20032;-74
2023/08/02 06:25:07;;;;;;;6.45;3.00;;;15.30;99.90;;;;;;5053976;28;20513;-76
2023/08/02 06:27:32;;;;;;;10.88;3.22;;;15.30;99.90;;;;;;5054424;28;20059;-74
2023/08/02 06:29:58;;;;;;;6.65;3.67;;;15.30;99.90;;;;;;5054129;28;20343;-74
2023/08/02 06:32:24;;;;;;;8.50;3.50;;;15.30;99.90;;;;;;5053855;28;20065;-75
2023/08/02 06:34:50;;;;;;;14.15;3.92;;;15.30;99.90;;;;;;5054067;28;20020;-76
2023/08/02 06:37:15;;;;;;;8.23;4.07;;;15.30;99.90;;;;;;5054314;28;20440;-74
2023/08/02 06:39:41;;;;;;;7.15;3.85;;;15.30;99.90;;;;;;5053742;28;20025;-74
2023/08/02 06:42:07;;;;;;;6.43;4.05;;;15.20;99.90;;;;;;5054108;28;20027;-76
2023/08/02 06:44:32;;;;;;;9.00;3.78;;;15.20;99.90;;;;;;5054068;28;20469;-80
2023/08/02 06:46:58;;;;;;;8.55;4.40;;;15.20;99.90;;;;;;5052419;28;20013;-75
2023/08/02 06:49:24;;;;;;;11.82;5.03;;;15.20;99.90;;;;;;5053119;28;20116;-79
2023/08/02 06:51:49;;;;;;;11.82;4.60;;;15.20;99.90;;;;;;5053717;28;20029;-76
2023/08/02 06:54:15;;;;;;;11.30;4.85;;;15.20;99.90;;;;;;5053940;28;20499;-74
2023/08/02 06:56:43;;;;;;;10.75;4.65;;;15.20;99.90;;;;;;5053837;28;20029;-75
2023/08/02 06:59:09;;;;;;;9.15;4.63;;;15.20;99.90;;;;;;5053481;28;20029;-80
2023/08/02 07:01:34;;;;;;;11.98;5.53;;;15.20;99.90;;;;;;5053762;28;20376;-76
2023/08/02 07:04:00;;;;;;;8.85;4.80;;;15.10;99.90;;;;;;5053758;28;20021;-77
2023/08/02 07:06:26;;;;;;;11.75;5.32;;;15.10;99.90;;;;;;5053399;28;20107;-79
2023/08/02 07:08:51;;;;;;;11.43;5.00;;;15.10;99.90;;;;;;5053563;28;20134;-75
2023/08/02 07:11:18;;;;;;;10.45;5.40;;;15.10;99.90;;;;;;5053237;28;20449;-77
2023/08/02 07:13:45;;;;;;;11.02;5.25;;;15.10;99.90;;;;;;5053261;28;20111;-74
2023/08/02 07:16:11;;;;;;;10.30;5.50;;;15.10;99.90;;;;;;5053590;28;20350;-73
2023/08/02 07:18:36;;;;;;;11.85;5.68;;;15.20;99.90;;;;;;5056390;28;20099;-74
2023/08/02 07:21:09;;;;;;;10.48;5.07;;;15.20;99.90;;;;;;5057204;28;20477;-75
2023/08/02 07:23:36;;;;;;;11.65;5.07;;;15.30;99.90;;;;;;5057661;28;20067;-76
2023/08/02 07:26:03;;;;;;;11.10;5.68;;;15.50;99.90;;;;;;5057664;28;20029;-79
2023/08/02 07:28:29;;;;;;;9.25;5.20;;;15.50;99.90;;;;;;5057235;28;20032;-73
2023/08/02 07:31:05;;;;;;;12.93;6.28;;;15.60;99.90;;;;;;5057247;28;20025;-76
2023/08/02 07:33:31;;;;;;;10.85;6.10;;;15.60;99.90;;;;;;5057548;28;20343;-77
2023/08/02 07:35:56;;;;;;;14.05;5.07;;;15.60;99.90;;;;;;5055903;28;20028;-76
2023/08/02 07:38:22;;;;;;;11.13;6.18;;;15.60;99.90;;;;;;5057073;28;20028;-76
2023/08/02 07:40:48;;;;;;;9.82;5.20;;;15.70;99.90;;;;;;5057040;28;20454;-78
2023/08/02 07:43:13;;;;;;;11.90;5.90;;;15.80;99.90;;;;;;5057008;28;20016;-74
2023/08/02 07:45:39;;;;;;;11.05;5.93;;;15.80;99.90;;;;;;5056954;28;20028;-77
2023/08/02 07:48:04;;;;;;;9.52;5.72;;;15.80;99.90;;;;;;5055449;28;20552;-73
2023/08/02 07:50:31;;;;;;;9.85;5.85;;;15.90;99.90;;;;;;5056589;28;20037;-74
2023/08/02 07:52:57;;;;;;;14.35;6.50;;;15.90;99.90;;;;;;5057138;28;20032;-75
2023/08/02 07:55:22;;;;;;;11.52;5.90;;;16.00;99.90;;;;;;5056188;28;20033;-77
2023/08/02 07:57:49;;;;;;;9.15;5.35;;;16.10;99.90;;;;;;5055499;28;20021;-76
2023/08/02 08:00:15;;;;;;;10.90;5.93;;;16.10;99.90;;;;;;5056809;28;20025;-79
2023/08/02 08:02:43;;;;;;;9.68;5.43;;;16.20;99.90;;;;;;5056844;28;20028;-79
2023/08/02 08:05:09;;;;;;;12.73;5.80;;;16.30;99.90;;;;;;5055324;28;20021;-75
2023/08/02 08:07:35;;;;;;;10.25;5.60;;;16.30;99.90;;;;;;5056579;28;20051;-76
2023/08/02 08:10:01;;;;;;;10.45;5.32;;;16.30;99.90;;;;;;5056468;28;20029;-78
2023/08/02 08:12:26;;;;;;;10.10;5.18;;;16.40;99.90;;;;;;5057053;28;20029;-75
2023/08/02 08:14:52;;;;;;;14.98;5.78;;;16.40;99.90;;;;;;5056136;28;20492;-75
2023/08/02 08:17:18;;;;;;;12.38;5.15;;;16.50;99.90;;;;;;5056357;28;20423;-78
2023/08/02 08:19:44;;;;;;;11.57;5.18;;;16.50;99.90;;;;;;5055030;28;20035;-75
2023/08/02 08:22:10;;;;;;;11.25;5.50;;;16.50;99.90;;;;;;5056559;28;20020;-75
2023/08/02 08:24:35;;;;;;;8.93;4.88;;;16.50;99.90;;;;;;5056838;28;20032;-78
2023/08/02 08:27:01;;;;;;;9.27;4.88;;;16.50;99.90;;;;;;5056254;28;20013;-76
2023/08/02 08:29:27;;;;;;;8.50;4.97;;;16.50;99.90;;;;;;5054747;28;20361;-77
2023/08/02 08:31:53;;;;;;;10.18;5.18;;;16.50;99.90;;;;;;5056109;28;20028;-81
2023/08/02 08:34:22;;;;;;;10.35;5.43;;;16.50;99.90;;;;;;5054861;28;20468;-79
2023/08/02 08:36:48;;;;;;;11.43;5.32;;;16.50;99.90;;;;;;5055784;28;20100;-77
2023/08/02 08:39:14;;;;;;;9.65;5.15;;;16.50;99.90;;;;;;5056296;28;20170;-78
2023/08/02 08:41:39;;;;;;;9.25;5.18;;;16.50;99.90;;;;;;5055698;28;20020;-81
2023/08/02 08:44:05;;;;;;;8.80;5.00;;;16.40;99.90;;;;;;5054605;28;20021;-80
2023/08/02 08:46:32;;;;;;;11.23;5.07;;;16.40;99.90;;;;;;5055880;28;20309;-77
2023/08/02 08:49:02;;;;;;;9.27;5.05;;;16.40;99.90;;;;;;5055395;28;20048;-77
2023/08/02 08:51:29;;;;;;;8.45;4.70;;;16.50;99.90;;;;;;5056017;28;20037;-78
2023/08/02 08:54:00;;;;;;;9.48;5.00;;;16.40;99.90;;;;;;5055701;28;20052;-79
2023/08/02 08:56:33;;;;;;;9.45;4.22;;;16.30;99.90;;;;;;5055925;28;20025;-77
2023/08/02 08:59:01;;;;;;;9.32;4.53;;;16.30;99.90;;;;;;5055809;28;20048;-77
2023/08/02 09:01:28;;;;;;;7.68;4.40;;;16.30;99.90;;;;;;5055587;28;20024;-77
2023/08/02 09:03:56;;;;;;;7.55;4.35;;;16.30;99.90;;;;;;5055715;28;20021;-74
2023/08/02 09:06:26;;;;;;;6.78;3.97;;;16.30;99.90;;;;;;5054164;28;20020;-75
2023/08/02 09:08:51;;;;;;;8.75;4.50;;;16.40;99.90;;;;;;5055464;28;20032;-82
2023/08/02 09:11:17;;;;;;;7.22;3.88;;;16.50;99.90;;;;;;5055336;28;20078;-80
2023/08/02 09:13:43;;;;;;;7.25;3.92;;;16.50;99.90;;;;;;5055325;28;20519;-82
2023/08/02 09:16:10;;;;;;;7.43;3.88;;;16.60;99.90;;;;;;5055311;28;20100;-80
2023/08/02 09:18:41;;;;;;;8.40;3.90;;;16.60;99.90;;;;;;5055468;28;20044;-82
2023/08/02 09:21:08;;;;;;;6.47;3.72;;;16.60;99.90;;;;;;5055248;28;20029;-78
2023/08/02 09:23:34;;;;;;;11.27;3.95;;;16.60;99.90;;;;;;5055343;28;20067;-81
2023/08/02 09:26:33;;;;;;;6.68;3.70;;;16.70;99.90;;;;;;5053837;28;20025;-79
2023/08/02 09:29:04;;;;;;;6.35;3.47;;;16.70;99.90;;;;;;5043325;28;20484;-81
2023/08/02 09:31:31;;;;;;;6.35;3.33;;;16.80;99.90;;;;;;5055314;28;20404;-77
2023/08/02 09:34:00;;;;;;;7.47;3.67;;;16.70;99.90;;;;;;5055013;28;20032;-77
2023/08/02 09:36:28;;;;;;;5.13;3.45;;;16.70;99.90;;;;;;5055178;28;20025;-82
2023/08/02 09:39:14;;;;;;;7.38;3.00;;;16.80;99.90;;;;;;5053857;28;20082;-82
2023/08/02 09:41:40;;;;;;;6.53;3.50;;;16.80;99.90;;;;;;5054854;28;20028;-76
2023/08/02 09:44:07;;;;;;;6.00;3.55;;;16.70;99.90;;;;;;5055051;28;20488;-79
2023/08/02 09:46:35;;;;;;;5.88;3.10;;;16.80;99.90;;;;;;5053623;28;20029;-77
2023/08/02 09:49:02;;;;;;;6.93;3.40;;;16.80;99.90;;;;;;5054506;28;20059;-74
2023/08/02 09:51:41;;;;;;;6.18;3.55;;;16.80;99.90;;;;;;5054868;28;20029;-80
2023/08/02 09:54:08;;;;;;;8.52;3.40;;;16.70;99.90;;;;;;5055456;28;20025;-81
2023/08/02 09:56:38;;;;;;;6.63;3.20;;;16.80;99.90;;;;;;5054555;28;20017;-81
2023/08/02 09:59:05;;;;;;;6.80;3.28;;;16.80;99.90;;;;;;5054646;28;20021;-76
2023/08/02 10:01:32;;;;;;;5.35;3.15;;;16.90;99.90;;;;;;5054377;28;20119;-76
2023/08/02 10:04:05;;;;;;;5.50;3.10;;;16.90;99.90;;;;;;5053164;28;20021;-76
2023/08/02 10:06:37;;;;;;;5.80;3.20;;;16.90;99.90;;;;;;5054846;28;20439;-75
2023/08/02 10:09:07;;;;;;;5.50;3.17;;;16.90;99.90;;;;;;5054382;28;20021;-77
2023/08/02 10:12:03;;;;;;;6.57;3.17;;;16.90;99.90;;;;;;5053042;28;20040;-76
2023/08/02 10:14:31;;;;;;;5.47;3.13;;;17.00;99.90;;;;;;5045604;28;20125;-77
2023/08/02 10:17:02;;;;;;;6.43;3.65;;;17.00;99.90;;;;;;5054441;28;20021;-79
2023/08/02 10:19:29;;;;;;;9.38;3.15;;;17.10;99.90;;;;;;5054589;28;20448;-80
2023/08/02 10:22:03;;;;;;;5.07;3.13;;;17.10;99.90;;;;;;5052679;28;20477;-77
2023/08/02 10:24:29;;;;;;;5.63;3.40;;;17.20;99.90;;;;;;5054164;28;20020;-78
2023/08/02 10:27:03;;;;;;;7.18;3.50;;;17.30;99.90;;;;;;5053995;28;20105;-78
2023/08/02 10:29:32;;;;;;;5.40;3.17;;;17.40;99.90;;;;;;5053938;28;20071;-76
2023/08/02 10:31:57;;;;;;;5.50;3.20;;;17.40;99.90;;;;;;5054199;28;20032;-80
2023/08/02 10:34:42;;;;;;;7.18;4.20;;;17.60;99.90;;;;;;5052672;28;20127;-80
2023/08/02 10:37:08;;;;;;;7.97;3.90;;;17.70;99.90;;;;;;5052641;28;20021;-83
2023/08/02 10:39:47;;;;;;;8.82;4.47;;;17.80;99.90;;;;;;5054061;28;20083;-80
2023/08/02 10:42:17;;;;;;;6.80;3.70;;;17.90;99.90;;;;;;5053648;28;20025;-79
2023/08/02 10:44:54;;;;;;;10.73;4.00;;;18.00;99.90;;;;;;5053530;28;20411;-81
2023/08/02 10:47:28;;;;;;;11.95;4.38;;;18.20;99.90;;;;;;5053653;28;20021;-79
2023/08/02 10:49:55;;;;;;;6.88;4.00;;;18.30;99.90;;;;;;5053023;28;20040;-80
2023/08/02 10:52:25;;;;;;;6.60;3.80;;;18.50;99.90;;;;;;5053442;28;20025;-80
2023/08/02 10:55:13;;;;;;;9.38;4.25;;;18.80;99.90;;;;;;5053096;28;20418;-78
2023/08/02 10:57:41;;;;;;;9.52;4.20;;;18.90;99.90;;;;;;5053890;28;20100;-79
2023/08/02 11:00:18;;;;;;;10.15;3.95;;;18.80;99.90;;;;;;5053520;28;20074;-76
2023/08/02 11:02:48;;;;;;;7.93;4.35;;;18.70;99.90;;;;;;5053539;28;20021;-80
2023/08/02 11:05:19;;;;;;;9.27;5.05;;;18.60;99.90;;;;;;5053577;28;20440;-81
2023/08/02 11:08:01;;;;;;;8.05;5.10;;;18.50;99.90;;;;;;5053439;28;20105;-80
2023/08/02 11:10:30;;;;;;;9.80;5.13;;;18.40;99.90;;;;;;5053107;28;20036;-78
2023/08/02 11:12:55;;;;;;;13.52;5.70;;;18.40;99.90;;;;;;5053572;28;20079;-79
2023/08/02 11:15:22;;;;;;;10.23;5.25;;;18.40;99.90;;;;;;5053422;28;20450;-81
2023/08/02 11:17:54;;;;;;;9.40;5.47;;;18.40;99.90;;;;;;5053248;28;20021;-79
2023/08/02 11:20:26;;;;;;;15.80;5.18;;;18.50;99.90;;;;;;5053444;28;20029;-80
2023/08/02 11:22:53;;;;;;;10.63;4.78;;;18.50;99.90;;;;;;5053688;28;20051;-80
2023/08/02 11:25:20;;;;;;;9.38;5.03;;;18.40;99.90;;;;;;5053251;28;20032;-79
2023/08/02 11:27:45;;;;;;;10.43;6.03;;;18.40;99.90;;;;;;5053916;28;20025;-81
2023/08/02 11:30:11;;;;;;;11.25;5.80;;;18.40;99.90;;;;;;5053639;28;20116;-79
2023/08/02 11:32:45;;;;;;;11.10;6.07;;;18.30;99.90;;;;;;5053149;28;20350;-76
2023/08/02 11:35:17;;;;;;;9.27;5.57;;;18.20;99.90;;;;;;5053575;28;20031;-78
2023/08/02 11:37:43;;;;;;;11.20;5.63;;;18.10;99.90;;;;;;5052529;28;20369;-79
2023/08/02 11:40:13;;;;;;;8.77;5.63;;;18.10;99.90;;;;;;5052825;28;20350;-80
2023/08/02 11:42:50;;;;;;;9.70;5.45;;;18.10;99.90;;;;;;5053191;28;20057;-81
2023/08/02 11:45:32;;;;;;;10.77;5.97;;;18.10;99.90;;;;;;5053084;28;20021;-82
2023/08/02 11:47:57;;;;;;;12.13;6.00;;;18.20;99.90;;;;;;5053180;28;20053;-82
2023/08/02 11:50:28;;;;;;;12.75;6.03;;;18.20;99.90;;;;;;5053752;28;20512;-78
2023/08/02 11:53:12;;;;;;;14.13;6.60;;;18.20;99.90;;;;;;5052999;28;20024;-78
2023/08/02 11:55:41;;;;;;;10.52;6.07;;;18.40;99.90;;;;;;5053526;28;20048;-78
2023/08/02 11:58:08;;;;;;;10.52;6.32;;;18.50;99.90;;;;;;5052957;28;20028;-78
2023/08/02 12:00:36;;;;;;;9.80;6.38;;;18.50;99.90;;;;;;5052899;28;20025;-77
2023/08/02 12:03:12;;;;;;;20.00;6.55;;;18.50;99.90;;;;;;5052952;28;20112;-79
2023/08/02 12:05:41;;;;;;;10.27;5.97;;;18.50;99.90;;;;;;5056707;28;20127;-78
2023/08/02 12:08:13;;;;;;;12.13;7.00;;;18.60;99.90;;;;;;5056975;28;20017;-77
2023/08/02 12:10:39;;;;;;;10.05;6.13;;;18.70;99.90;;;;;;5056531;28;20462;-79
2023/08/02 12:13:08;;;;;;;11.05;6.25;;;18.90;99.90;;;;;;5057543;28;20017;-82
2023/08/02 12:15:34;;;;;;;10.93;6.00;;;19.10;99.90;;;;;;5055030;28;20020;-80
2023/08/02 12:18:03;;;;;;;9.52;5.30;;;19.30;99.90;;;;;;5056064;28;20031;-79
2023/08/02 12:20:34;;;;;;;10.85;5.30;;;19.50;99.90;;;;;;5056415;28;20455;-75
2023/08/02 12:23:00;;;;;;;7.75;4.60;;;19.50;99.90;;;;;;5055933;28;20028;-74
2023/08/02 12:25:48;;;;;;;8.50;4.97;;;19.60;99.90;;;;;;5056526;28;20021;-76
2023/08/02 12:28:13;;;;;;;9.23;5.30;;;19.70;99.90;;;;;;5055670;28;20116;-75
2023/08/02 12:30:39;;;;;;;11.02;5.78;;;19.90;99.90;;;;;;5056539;28;20119;-76
2023/08/02 12:33:05;;;;;;;10.65;5.80;;;20.00;99.90;;;;;;5055564;28;20357;-75
2023/08/02 12:35:31;;;;;;;8.98;4.80;;;20.20;99.90;;;;;;5056181;28;20108;-75
2023/08/02 12:37:57;;;;;;;9.55;5.30;;;20.40;99.90;;;;;;5054909;28;20044;-76
2023/08/02 12:40:22;;;;;;;10.07;5.75;;;20.70;99.90;;;;;;5054843;28;20376;-74
2023/08/02 12:42:48;;;;;;;9.13;5.53;;;20.90;99.90;;;;;;5055926;28;20449;-75
2023/08/02 12:45:14;;;;;;;8.85;5.03;;;21.00;99.90;;;;;;5056136;28;20024;-75
2023/08/02 12:47:39;;;;;;;11.70;5.90;;;21.00;99.90;;;;;;5055926;28;20021;-74